createdAt,value
2022-11-03T00:03:27.729Z,18.70
2022-11-03T00:08:29.533Z,20.70
2022-11-03T00:13:38.709Z,20.30
2022-11-03T00:18:40.659Z,21.10
2022-11-03T00:23:44.007Z,34.80
2022-11-03T00:28:47.703Z,25.50
2022-11-03T00:33:50.438Z,32.00
2022-11-03T00:38:52.990Z,28.60
2022-11-03T00:43:55.289Z,32.80
2022-11-03T00:48:57.119Z,32.60
2022-11-03T00:54:01.104Z,34.00
2022-11-03T00:59:05.192Z,33.30
2022-11-03T01:04:26.868Z,39.40
2022-11-03T01:09:31.642Z,31.60
2022-11-03T01:14:36.459Z,25.60
2022-11-03T01:19:38.340Z,38.30
2022-11-03T01:24:41.744Z,36.70
2022-11-03T01:29:44.056Z,33.10
2022-11-03T01:34:45.981Z,41.00
2022-11-03T01:39:47.786Z,33.30
2022-11-03T01:44:49.774Z,33.80
2022-11-03T01:50:05.980Z,36.20
2022-11-03T01:55:13.572Z,35.40
2022-11-03T02:00:15.952Z,34.50
2022-11-03T02:05:21.772Z,35.90
2022-11-03T02:10:25.270Z,38.90
2022-11-03T02:15:28.956Z,37.70
2022-11-03T02:20:31.997Z,33.70
2022-11-03T02:25:36.532Z,45.80
2022-11-03T02:31:00.021Z,45.30
2022-11-03T02:36:05.897Z,45.10
2022-11-03T02:41:09.231Z,49.10
2022-11-03T02:46:13.433Z,55.20
2022-11-03T02:51:15.227Z,53.00
2022-11-03T02:56:23.217Z,49.70
2022-11-03T03:01:47.555Z,47.30
2022-11-03T03:06:57.777Z,45.60
2022-11-03T03:12:02.470Z,42.00
2022-11-03T03:17:24.414Z,37.10
2022-11-03T03:22:36.764Z,37.20
2022-11-03T03:27:43.442Z,39.10
2022-11-03T03:32:49.134Z,37.40
2022-11-03T03:37:54.943Z,39.80
2022-11-03T03:42:58.255Z,38.20
2022-11-03T03:48:00.764Z,41.40
2022-11-03T03:53:05.308Z,44.20
2022-11-03T03:58:08.476Z,42.90
2022-11-03T04:03:19.917Z,44.60
2022-11-03T04:08:21.879Z,45.00
2022-11-03T04:13:42.453Z,52.30
2022-11-03T04:19:02.963Z,49.00
2022-11-03T04:24:04.970Z,51.80
2022-11-03T04:29:09.660Z,47.50
2022-11-03T04:34:13.063Z,45.30
2022-11-03T04:39:21.210Z,49.30
2022-11-03T04:44:23.083Z,44.70
2022-11-03T04:49:25.333Z,48.60
2022-11-03T04:54:27.274Z,49.20
2022-11-03T04:59:29.452Z,50.70
2022-11-03T05:04:31.193Z,47.60
2022-11-03T05:09:33.000Z,48.40
2022-11-03T05:14:34.823Z,56.10
2022-11-03T05:19:41.264Z,50.20
2022-11-03T05:24:44.117Z,56.90
2022-11-03T05:29:47.270Z,54.40
2022-11-03T05:34:51.424Z,54.20
2022-11-03T05:39:59.587Z,55.00
2022-11-03T05:45:15.884Z,58.30
2022-11-03T05:50:22.176Z,53.80
2022-11-03T05:55:37.254Z,51.90
2022-11-03T06:00:48.160Z,57.40
2022-11-03T06:05:51.926Z,52.90
2022-11-03T06:10:57.081Z,41.00
2022-11-03T06:16:21.155Z,55.70
2022-11-03T06:21:25.585Z,55.20
2022-11-03T06:26:28.850Z,55.00
2022-11-03T06:31:33.129Z,53.70
2022-11-03T06:36:37.371Z,47.40
2022-11-03T06:41:39.961Z,50.40
2022-11-03T06:46:41.829Z,55.50
2022-11-03T06:51:43.644Z,49.70
2022-11-03T06:56:45.467Z,50.40
2022-11-03T07:01:55.403Z,46.10
2022-11-03T07:07:03.091Z,39.40
2022-11-03T07:12:14.998Z,36.40
2022-11-03T07:17:22.126Z,32.90
2022-11-03T07:22:26.115Z,37.90
2022-11-03T07:27:31.245Z,38.30
2022-11-03T07:32:34.730Z,29.20
2022-11-03T07:37:36.851Z,28.00
2022-11-03T07:42:38.751Z,27.10
2022-11-03T07:47:44.017Z,30.60
2022-11-03T07:52:45.798Z,36.10
2022-11-03T07:57:48.301Z,36.50
2022-11-03T08:02:59.200Z,37.60
2022-11-03T08:08:01.063Z,42.70
2022-11-03T08:13:02.961Z,35.70
2022-11-03T08:18:04.882Z,34.90
2022-11-03T08:23:24.612Z,43.60
2022-11-03T08:28:27.451Z,36.10
2022-11-03T08:38:36.479Z,33.90
2022-11-03T08:43:38.282Z,34.40
2022-11-03T08:48:40.280Z,21.50
2022-11-03T08:53:42.999Z,15.70
2022-11-03T08:58:44.944Z,11.00
2022-11-03T09:03:46.919Z,15.00
2022-11-03T09:14:10.803Z,7.00
2022-11-03T09:19:12.662Z,10.50
2022-11-03T09:24:14.469Z,9.10
2022-11-03T09:29:16.277Z,8.70
2022-11-03T09:34:18.112Z,6.90
2022-11-03T09:39:19.980Z,7.40
2022-11-03T09:44:21.838Z,6.60
2022-11-03T09:49:23.896Z,4.70
2022-11-03T09:54:27.195Z,7.20
2022-11-03T09:59:30.522Z,7.20
2022-11-03T10:04:32.491Z,4.80
2022-11-03T10:09:34.622Z,3.20
2022-11-03T10:14:37.067Z,5.30
2022-11-03T10:19:38.885Z,6.70
2022-11-03T10:24:40.702Z,5.20
2022-11-03T10:29:45.391Z,3.90
2022-11-03T10:34:52.615Z,6.40
2022-11-03T10:39:57.255Z,7.10
2022-11-03T10:45:19.987Z,3.00
2022-11-03T10:50:26.910Z,4.60
2022-11-03T10:55:30.478Z,4.90
2022-11-03T11:00:33.369Z,5.70
2022-11-03T11:05:35.317Z,4.00
2022-11-03T11:10:37.187Z,5.20
2022-11-03T11:15:50.968Z,4.40
2022-11-03T11:20:52.748Z,6.60
2022-11-03T11:26:09.947Z,6.60
2022-11-03T11:31:27.133Z,4.20
2022-11-03T11:36:29.113Z,4.50
2022-11-03T11:42:08.695Z,4.80
2022-11-03T11:47:27.940Z,3.60
2022-11-03T11:52:30.297Z,4.40
2022-11-03T11:57:35.346Z,8.50
2022-11-03T12:02:37.183Z,5.40
2022-11-03T12:07:38.956Z,4.30
2022-11-03T12:12:40.723Z,5.60
2022-11-03T12:17:42.512Z,7.50
2022-11-03T12:22:44.366Z,5.40
2022-11-03T12:27:46.349Z,12.10
2022-11-03T12:32:48.355Z,9.40
2022-11-03T12:37:50.139Z,6.50
2022-11-03T12:42:52.056Z,6.00
2022-11-03T12:47:53.829Z,11.40
2022-11-03T12:52:55.627Z,5.60
2022-11-03T12:57:57.494Z,7.00
2022-11-03T13:02:59.313Z,7.80
2022-11-03T13:08:01.104Z,5.10
2022-11-03T13:13:02.923Z,8.10
2022-11-03T13:18:14.069Z,7.00
2022-11-03T13:23:18.856Z,3.40
2022-11-03T13:28:24.148Z,7.40
2022-11-03T13:33:26.045Z,6.30
2022-11-03T13:38:27.832Z,8.10
2022-11-03T13:43:29.612Z,8.40
2022-11-03T14:04:44.603Z,8.30
2022-11-03T14:09:47.153Z,8.80
2022-11-03T14:14:48.949Z,7.10
2022-11-03T14:19:52.839Z,6.70
2022-11-03T14:24:57.127Z,12.90
2022-11-03T14:29:59.006Z,8.80
2022-11-03T14:35:00.911Z,8.90
2022-11-03T14:40:03.159Z,9.70
2022-11-03T14:45:05.412Z,9.70
2022-11-03T14:50:07.747Z,7.10
2022-11-03T14:55:09.664Z,33.40
2022-11-03T15:00:11.840Z,35.00
2022-11-03T15:05:33.631Z,17.00
2022-11-03T15:10:35.427Z,10.40
2022-11-03T15:15:37.334Z,9.50
2022-11-03T15:20:39.177Z,8.10
2022-11-03T15:25:41.047Z,9.30
2022-11-03T15:30:42.926Z,9.90
2022-11-03T15:35:45.344Z,10.10
2022-11-03T15:40:47.177Z,10.30
2022-11-03T15:45:48.932Z,11.50
2022-11-03T15:50:50.946Z,11.70
2022-11-03T15:55:52.843Z,12.80
2022-11-03T16:00:54.723Z,12.50
2022-11-03T16:05:56.716Z,10.90
2022-11-03T16:10:58.606Z,12.40
2022-11-03T16:16:00.502Z,11.30
2022-11-03T16:21:02.489Z,13.00
2022-11-03T16:26:05.746Z,17.30
2022-11-03T16:31:07.549Z,15.10
2022-11-03T16:36:09.460Z,21.70
2022-11-03T16:41:11.822Z,26.10
2022-11-03T16:46:13.675Z,26.70
2022-11-03T16:51:15.509Z,19.50
2022-11-03T16:56:17.350Z,20.50
2022-11-03T17:01:19.303Z,19.30
2022-11-03T17:06:21.367Z,18.00
2022-11-03T17:11:49.388Z,14.90
2022-11-03T17:16:51.313Z,14.20
2022-11-03T17:21:53.770Z,16.40
2022-11-03T17:27:07.568Z,19.70
2022-11-03T17:32:22.159Z,18.70
2022-11-03T17:37:25.200Z,16.90
2022-11-03T17:42:28.617Z,17.00
2022-11-03T17:47:31.853Z,16.50
2022-11-03T17:52:34.116Z,15.90
2022-11-03T17:57:36.574Z,16.00
2022-11-03T18:02:40.600Z,14.00
2022-11-03T18:07:42.943Z,16.10
2022-11-03T18:13:07.509Z,12.10
2022-11-03T18:18:14.664Z,13.70
2022-11-03T18:23:30.515Z,15.50
2022-11-03T18:28:32.345Z,16.50
2022-11-03T18:33:36.139Z,20.50
2022-11-03T18:38:41.466Z,20.90
2022-11-03T18:43:43.269Z,21.40
2022-11-03T18:48:45.099Z,21.00
2022-11-03T18:53:46.975Z,21.50
2022-11-03T18:58:52.639Z,21.50
2022-11-03T19:03:56.395Z,24.90
2022-11-03T19:08:59.807Z,20.10
2022-11-03T19:14:01.827Z,21.60
2022-11-03T19:19:04.164Z,22.90
2022-11-03T19:24:06.268Z,24.00
2022-11-03T19:29:14.750Z,20.50
2022-11-03T19:34:20.047Z,21.50
2022-11-03T19:39:36.083Z,21.10
2022-11-03T19:44:37.960Z,19.60
2022-11-03T19:49:39.810Z,20.70
2022-11-03T19:54:48.756Z,24.50
2022-11-03T19:59:50.539Z,22.80
2022-11-03T20:04:52.326Z,30.00
2022-11-03T20:09:54.137Z,23.90
2022-11-03T20:14:55.975Z,25.60
2022-11-03T20:19:57.993Z,29.80
2022-11-03T20:25:03.323Z,25.10
2022-11-03T20:30:05.942Z,30.30
2022-11-03T20:35:13.448Z,27.30
2022-11-03T20:40:19.466Z,24.90
2022-11-03T20:45:23.314Z,28.10
2022-11-03T20:50:25.872Z,27.60
2022-11-03T20:55:27.662Z,25.00
2022-11-03T21:00:31.735Z,29.10
2022-11-03T21:05:33.607Z,28.50
2022-11-03T21:10:36.035Z,26.90
2022-11-03T21:16:23.004Z,29.40
2022-11-03T21:21:21.495Z,35.30
2022-11-03T21:26:23.386Z,27.30
2022-11-03T21:31:25.234Z,32.50
2022-11-03T21:36:27.022Z,29.70
2022-11-03T21:41:47.758Z,31.10
2022-11-03T21:46:49.536Z,29.00
2022-11-03T21:51:51.397Z,29.60
2022-11-03T21:56:53.262Z,28.20
2022-11-03T22:01:55.403Z,28.00
2022-11-03T22:06:59.102Z,29.70
2022-11-03T22:12:05.673Z,24.40
2022-11-03T22:17:07.540Z,29.40
2022-11-03T22:22:33.707Z,23.10
2022-11-03T22:27:35.543Z,17.70
2022-11-03T22:32:39.917Z,17.80
2022-11-03T22:37:42.071Z,15.60
2022-11-03T22:43:03.590Z,14.20
2022-11-03T22:48:09.475Z,19.10
2022-11-03T22:53:30.498Z,20.10
2022-11-03T22:58:33.374Z,22.60
2022-11-03T23:03:37.270Z,21.50
2022-11-03T23:08:41.163Z,22.30
2022-11-03T23:13:44.879Z,23.00
2022-11-03T23:19:06.472Z,23.90
2022-11-03T23:24:27.165Z,19.50
2022-11-03T23:29:29.462Z,22.20
2022-11-03T23:34:31.283Z,19.20
2022-11-03T23:39:33.081Z,19.90
2022-11-03T23:44:53.636Z,23.20
2022-11-03T23:49:55.428Z,27.20
2022-11-03T23:54:57.312Z,17.10
2022-11-03T23:59:59.157Z,23.20
